Language: 


Des rapports , des résumés tant et plus, au choix de chacun....


Données statistiques de la station
Quotidien Rapport Février 16, 2017 Unités:  Anglais    Métrique   les deux
« Précédent Jour
Suivant Jour »
Quotidien Hebdomadaire Mensuel Annuel Actuel
  Haut: Bas: Moyen:
Température: 53.8 °F 32 °F 42.3 °F
Pt de rosée: 52.3 °F 33.4 °F 41.4 °F
Humidité: 98 % 0 % 96 %
Vitesse du vent: 11 mph 0 mph 3.2 mph
Rafales: 12.8 mph - -
Vent:- - West
Pression: 30.4 in 0 in -
Précipitation: 0 in    
Historical Graphs
 
 
Données statistiques pour Février 16, 2017
Heure Température Point de rosée Pression Vent Vitesse du vent Refales Humidité Pluie (taux horaire)
00:03 39.6 °F 38.3 °F 30.4 in SSW 2.7 mph 3.1 mph 95 % 0 in
00:08 39.6 °F 38.3 °F 30.4 in Calm   3.1 mph 95 % 0 in
00:13 39.4 °F 38.1 °F 30.4 in Calm   2.7 mph 95 % 0 in
00:18 39.2 °F 38.1 °F 30.4 in Calm   2 mph 96 % 0 in
00:23 39.2 °F 38.1 °F 30.4 in Calm   2.9 mph 96 % 0 in
00:28 39.2 °F 38.1 °F 30.4 in Calm   2.9 mph 96 % 0 in
00:33 39 °F 37.9 °F 30.4 in Calm     96 % 0 in
00:38 39 °F 37.9 °F 30.4 in Calm   0.9 mph 96 % 0 in
00:43 38.8 °F 38.1 °F 30.4 in Calm   0.9 mph 97 % 0 in
00:48 39 °F 38.3 °F 30.4 in Calm   2 mph 97 % 0 in
00:53 39 °F 38.3 °F 30.4 in SSW 2.2 mph 2.2 mph 97 % 0 in
00:58 38.8 °F 38.1 °F 30.4 in WSW 2 mph 2.2 mph 97 % 0 in
01:03 39 °F 38.3 °F 30.4 in Calm   2.2 mph 97 % 0 in
01:08 39 °F 38.3 °F 30.4 in Calm   2 mph 97 % 0 in
01:14 38.8 °F 38.1 °F 30.4 in Calm     97 % 0 in
01:19 38.7 °F 37.9 °F 30.4 in Calm     97 % 0 in
01:24 38.5 °F 37.8 °F 30.4 in Calm     97 % 0 in
01:29 38.5 °F 37.6 °F 30.4 in Calm     97 % 0 in
01:34 38.1 °F 37.4 °F 30.4 in Calm     97 % 0 in
01:39 37.9 °F 37.2 °F 30.4 in Calm     97 % 0 in
01:44 37.9 °F 37.2 °F 30.4 in Calm     97 % 0 in
01:49 37.8 °F 37 °F 30.4 in Calm   2 mph 97 % 0 in
01:54 37.8 °F 37 °F 30.4 in Calm   2 mph 97 % 0 in
01:59 38.5 °F 37.8 °F 30.4 in Calm   2.7 mph 98 % 0 in
02:04 38.8 °F 38.5 °F 30.4 in Calm   3.1 mph 98 % 0 in
02:09 39.2 °F 38.7 °F 30.4 in West 1.3 mph 3.1 mph 98 % 0 in
02:14 39.2 °F 38.7 °F 30.4 in Calm   3.1 mph 98 % 0 in
02:19 39.2 °F 38.7 °F 30.4 in Calm   2.2 mph 98 % 0 in
02:24 39.2 °F 38.7 °F 30.4 in West 2 mph 2.5 mph 98 % 0 in
02:29 38.8 °F 38.5 °F 30.4 in Calm   3.4 mph 98 % 0 in
02:34 38.5 °F 37.9 °F 30.4 in Calm   3.4 mph 98 % 0 in
02:39 38.7 °F 38.1 °F 30.4 in Calm   0.9 mph 98 % 0 in
02:44 38.5 °F 37.9 °F 30.4 in West 2.9 mph 2.9 mph 98 % 0 in
02:49 37.9 °F 37.6 °F 30.4 in West 2.2 mph 3.4 mph 98 % 0 in
02:54 37.6 °F 36.9 °F 30.4 in Calm   3.6 mph 97 % 0 in
02:59 37.2 °F 36.5 °F 30.4 in West 2.7 mph 3.6 mph 97 % 0 in
03:06 32 °F 35.8 °F 0 in West 0.9 mph 2.7 mph 0 % 0 in
03:11 36.1 °F 35.2 °F 30.4 in West 2.5 mph 2.5 mph 97 % 0 in
03:16 36.1 °F 35.2 °F 30.4 in Calm   2.5 mph 97 % 0 in
03:21 36 °F 35.1 °F 30.4 in Calm   2.5 mph 97 % 0 in
03:26 35.8 °F 34.9 °F 30.4 in Calm   2.5 mph 97 % 0 in
03:31 35.4 °F 35.1 °F 30.4 in West 1.1 mph 2.5 mph 98 % 0 in
03:36 35.8 °F 35.2 °F 30.4 in Calm   2.7 mph 98 % 0 in
03:41 35.8 °F 35.2 °F 30.4 in Calm   2.7 mph 98 % 0 in
03:46 35.8 °F 35.2 °F 30.4 in Calm     98 % 0 in
03:51 35.8 °F 35.2 °F 30.4 in Calm     98 % 0 in
03:56 35.8 °F 35.2 °F 30.4 in Calm   2 mph 98 % 0 in
04:01 36.1 °F 35.4 °F 30.4 in Calm   2 mph 98 % 0 in
04:06 36.1 °F 35.8 °F 30.4 in Calm   2.7 mph 98 % 0 in
04:11 36.9 °F 36.3 °F 30.4 in Calm   2.7 mph 98 % 0 in
04:16 36.9 °F 36.3 °F 30.4 in Calm   0.9 mph 98 % 0 in
04:21 37 °F 36.7 °F 30.4 in Calm     98 % 0 in
04:26 37 °F 36.7 °F 30.4 in Calm     98 % 0 in
04:31 37 °F 36.7 °F 30.4 in Calm   1.6 mph 98 % 0 in
04:36 37 °F 36.7 °F 30.4 in WSW 3.1 mph 3.6 mph 98 % 0 in
04:41 37.2 °F 36.9 °F 30.4 in Calm   3.6 mph 98 % 0 in
04:46 37.6 °F 37 °F 30.4 in Calm   2.5 mph 98 % 0 in
04:47 37.6 °F 37 °F 30.4 in Calm   2.5 mph 98 % 0 in
04:52 37.8 °F 37.2 °F 30.4 in Calm   2.7 mph 98 % 0 in
04:57 37.9 °F 37.6 °F 30.4 in West 2.7 mph 2.7 mph 98 % 0 in
05:02 38.5 °F 37.8 °F 30.4 in Calm   2.7 mph 98 % 0 in
05:07 38.7 °F 38.1 °F 30.4 in Calm   2.7 mph 98 % 0 in
05:12 39.2 °F 38.7 °F 30.4 in WNW 2 mph 2.7 mph 98 % 0 in
05:17 39.4 °F 38.8 °F 30.4 in West 0.9 mph 2.7 mph 98 % 0 in
05:22 39.7 °F 39.2 °F 30.4 in Calm   2.5 mph 98 % 0 in
05:27 40.1 °F 39.6 °F 30.4 in Calm   2.7 mph 98 % 0 in
05:32 39.7 °F 39.2 °F 30.4 in Calm   2.7 mph 98 % 0 in
05:37 39.2 °F 38.7 °F 30.4 in Calm     98 % 0 in
05:42 38.8 °F 38.5 °F 30.4 in Calm     98 % 0 in
05:47 38.7 °F 38.1 °F 30.4 in Calm     98 % 0 in
05:52 38.5 °F 37.8 °F 30.4 in Calm     98 % 0 in
05:57 38.1 °F 37.8 °F 30.4 in Calm     98 % 0 in
06:02 37.9 °F 37.6 °F 30.4 in Calm     98 % 0 in
06:07 37.8 °F 37.2 °F 30.4 in Calm     98 % 0 in
06:12 37.8 °F 37.2 °F 30.4 in Calm     98 % 0 in
06:17 37.2 °F 36.9 °F 30.4 in Calm     98 % 0 in
06:22 37 °F 36.7 °F 30.4 in Calm     98 % 0 in
06:27 36.9 °F 36.3 °F 30.4 in Calm     98 % 0 in
06:32 36.9 °F 36.3 °F 30.4 in Calm     98 % 0 in
06:37 36.7 °F 36.1 °F 30.4 in Calm     98 % 0 in
06:42 36.3 °F 36 °F 30.4 in Calm     98 % 0 in
06:47 36.1 °F 35.8 °F 30.4 in Calm     98 % 0 in
06:52 36.1 °F 35.4 °F 30.4 in Calm     98 % 0 in
06:57 35.8 °F 35.2 °F 30.4 in Calm     98 % 0 in
07:03 35.4 °F 34.9 °F 30.4 in Calm     98 % 0 in
07:08 35.1 °F 34.5 °F 30.4 in Calm     98 % 0 in
07:13 34.5 °F 34.2 °F 30.4 in Calm     98 % 0 in
07:18 34.5 °F 34.2 °F 30.4 in Calm     98 % 0 in
07:23 34.9 °F 34.3 °F 30.4 in Calm     98 % 0 in
07:28 34.9 °F 34.3 °F 30.4 in Calm     98 % 0 in
07:33 34.5 °F 34 °F 30.4 in Calm     98 % 0 in
07:38 34.5 °F 34 °F 30.4 in Calm     98 % 0 in
07:43 34.5 °F 34 °F 30.4 in Calm     98 % 0 in
07:48 34.5 °F 34 °F 30.4 in Calm     98 % 0 in
07:53 34.5 °F 34 °F 30.4 in Calm     98 % 0 in
07:58 34.3 °F 33.8 °F 30.4 in Calm     98 % 0 in
08:03 34 °F 33.4 °F 30.4 in Calm     98 % 0 in
08:08 34 °F 33.4 °F 30.4 in Calm   3.1 mph 98 % 0 in
08:13 34 °F 33.4 °F 30.4 in Calm   3.1 mph 98 % 0 in
08:18 34.2 °F 33.6 °F 30.4 in Calm     98 % 0 in
08:23 34.3 °F 33.8 °F 30.4 in Calm     98 % 0 in
08:28 34.5 °F 34 °F 30.4 in Calm     98 % 0 in
08:33 34.9 °F 34.3 °F 30.4 in Calm     98 % 0 in
08:38 34.9 °F 34.3 °F 30.4 in Calm     98 % 0 in
08:43 35.1 °F 34.5 °F 30.4 in Calm     98 % 0 in
08:48 35.2 °F 34.7 °F 30.4 in Calm     98 % 0 in
08:53 35.4 °F 34.9 °F 30.4 in Calm     98 % 0 in
08:58 35.4 °F 35.1 °F 30.4 in Calm     98 % 0 in
09:03 35.4 °F 35.1 °F 30.4 in Calm   2.5 mph 98 % 0 in
09:08 35.8 °F 35.2 °F 30.4 in Calm   2.5 mph 98 % 0 in
09:13 36 °F 35.4 °F 30.4 in Calm   2.5 mph 98 % 0 in
09:18 36.1 °F 35.4 °F 30.4 in Calm     98 % 0 in
09:23 36.1 °F 35.8 °F 30.4 in Calm     98 % 0 in
09:28 36.3 °F 36 °F 30.4 in Calm     98 % 0 in
09:33 36.7 °F 36.1 °F 30.4 in Calm     98 % 0 in
09:38 36.9 °F 36.3 °F 30.4 in Calm   0.9 mph 98 % 0 in
09:43 37.2 °F 36.9 °F 30.4 in West 2.7 mph 2.7 mph 98 % 0 in
09:48 37.6 °F 37 °F 30.4 in West 4.7 mph 4.9 mph 98 % 0 in
09:53 37.8 °F 37.2 °F 30.4 in West 2 mph 5.4 mph 98 % 0 in
09:58 37.9 °F 37.6 °F 30.4 in Calm   5.4 mph 98 % 0 in
10:03 38.1 °F 37.8 °F 30.4 in Calm   3.1 mph 98 % 0 in
10:08 38.7 °F 38.1 °F 30.4 in Calm   2.5 mph 98 % 0 in
10:13 39.2 °F 38.7 °F 30.4 in Calm   3.1 mph 98 % 0 in
10:18 39.6 °F 39 °F 30.4 in Calm   3.1 mph 98 % 0 in
10:23 39.9 °F 39.4 °F 30.4 in Calm   2.5 mph 98 % 0 in
10:28 40.3 °F 39.7 °F 30.4 in Calm     98 % 0 in
10:33 40.8 °F 40.3 °F 30.4 in West 3.4 mph 3.4 mph 98 % 0 in
10:38 41.4 °F 40.8 °F 30.4 in Calm   3.4 mph 98 % 0 in
10:43 41.9 °F 41.4 °F 30.4 in West 6 mph 6 mph 98 % 0 in
10:48 42.6 °F 42.1 °F 30.4 in WSW 2.9 mph 6 mph 98 % 0 in
10:53 42.8 °F 42.3 °F 30.4 in WNW 4.3 mph 8.5 mph 98 % 0 in
10:58 43.2 °F 42.6 °F 30.4 in WNW 4.3 mph 8.5 mph 98 % 0 in
11:04 43.5 °F 43 °F 30.4 in WSW 6 mph 8.5 mph 98 % 0 in
11:08 43.5 °F 43 °F 30.4 in WSW 8.5 mph 9.8 mph 98 % 0 in
11:14 43.9 °F 43.3 °F 30.4 in West 6.3 mph 9.8 mph 98 % 0 in
11:19 44.1 °F 43.5 °F 30.4 in West 3.4 mph 7.2 mph 98 % 0 in
11:24 44.2 °F 43.5 °F 30.4 in West 6.3 mph 8.7 mph 98 % 0 in
11:29 44.2 °F 43.9 °F 30.4 in WSW 3.8 mph 8.7 mph 98 % 0 in
11:34 44.8 °F 44.2 °F 30.4 in North 2.9 mph 7.8 mph 98 % 0 in
11:39 45 °F 44.2 °F 30.4 in West 5.8 mph 9.2 mph 98 % 0 in
11:44 45.1 °F 44.4 °F 30.4 in West 7.8 mph 10.7 mph 98 % 0 in
11:49 45.1 °F 44.8 °F 30.4 in West 7.6 mph 10.7 mph 98 % 0 in
11:54 45.9 °F 45.1 °F 30.4 in WSW 7.8 mph 10.5 mph 98 % 0 in
11:59 45.9 °F 45.3 °F 30.4 in WSW 7.6 mph 10.3 mph 98 % 0 in
12:04 45.9 °F 45.3 °F 30.4 in WSW 7.2 mph 10.5 mph 98 % 0 in
12:09 46 °F 45.7 °F 30.4 in West 7.6 mph 10.5 mph 98 % 0 in
12:14 46.6 °F 45.9 °F 30.4 in WSW 8.7 mph 10.1 mph 98 % 0 in
12:19 46.2 °F 45.9 °F 30.4 in West 11 mph 12.8 mph 98 % 0 in
12:24 46.2 °F 45.9 °F 30.4 in WSW 6 mph 12.8 mph 98 % 0 in
12:29 46.2 °F 45.9 °F 30.4 in West 10.3 mph 10.5 mph 98 % 0 in
12:34 46.6 °F 45.9 °F 30.4 in WSW 9.6 mph 12.1 mph 98 % 0 in
12:39 46.6 °F 46 °F 30.4 in WSW 10.3 mph 12.1 mph 98 % 0 in
12:44 46.6 °F 46 °F 30.4 in West 10.1 mph 12.3 mph 98 % 0 in
12:49 47.1 °F 46.6 °F 30.4 in WSW 10.1 mph 12.3 mph 98 % 0 in
12:54 47.3 °F 46.8 °F 30.4 in WSW 9.4 mph 11.4 mph 98 % 0 in
12:59 47.3 °F 46.8 °F 30.4 in WSW 6.5 mph 11.4 mph 98 % 0 in
13:04 47.3 °F 46.8 °F 30.4 in WSW 5.4 mph 10.7 mph 98 % 0 in
13:09 47.1 °F 46.6 °F 30.4 in WSW 8.5 mph 10.1 mph 98 % 0 in
13:14 46.9 °F 46.6 °F 30.4 in WSW 8.1 mph 11 mph 98 % 0 in
13:19 46.8 °F 46.2 °F 30.4 in WSW 5.4 mph 11 mph 98 % 0 in
13:24 46.9 °F 46.6 °F 30.4 in WSW 5.6 mph 8.1 mph 98 % 0 in
13:29 46.9 °F 46.6 °F 30.4 in WSW 6.5 mph 7.4 mph 98 % 0 in
13:34 46.9 °F 46.6 °F 30.4 in WSW 5.8 mph 8.1 mph 98 % 0 in
13:39 46.9 °F 46.6 °F 30.4 in WSW 6.9 mph 8.1 mph 98 % 0 in
13:44 47.1 °F 46.6 °F 30.4 in WSW 6.3 mph 7.8 mph 98 % 0 in
13:49 47.5 °F 46.9 °F 30.4 in West 6.5 mph 6.9 mph 98 % 0 in
13:54 47.7 °F 47.1 °F 30.4 in WSW 3.8 mph 6.5 mph 98 % 0 in
13:59 48 °F 47.5 °F 30.4 in WSW 3.6 mph 6.3 mph 98 % 0 in
14:04 48.2 °F 47.7 °F 30.4 in WSW 3.6 mph 6.5 mph 98 % 0 in
14:09 48.6 °F 48 °F 30.4 in WSW 5.8 mph 6.5 mph 98 % 0 in
14:14 48.7 °F 48.2 °F 30.4 in WSW 5.4 mph 6.5 mph 98 % 0 in
14:19 48.9 °F 48.4 °F 30.4 in WSW 7.4 mph 7.4 mph 98 % 0 in
14:24 49.3 °F 48.7 °F 30.4 in WSW 6 mph 7.4 mph 98 % 0 in
14:29 49.3 °F 48.7 °F 30.4 in WSW 5.4 mph 7.4 mph 98 % 0 in
14:34 49.3 °F 48.7 °F 30.4 in WSW 4.9 mph 7.6 mph 98 % 0 in
14:39 49.5 °F 48.9 °F 30.4 in WSW 4.9 mph 7.6 mph 98 % 0 in
14:44 49.5 °F 48.9 °F 30.4 in WSW 4.9 mph 6 mph 98 % 0 in
14:49 49.5 °F 48.9 °F 30.4 in West 3.6 mph 6.5 mph 98 % 0 in
14:54 49.6 °F 49.1 °F 30.4 in West 6.5 mph 6.5 mph 98 % 0 in
14:59 49.5 °F 48.9 °F 30.4 in West 7.8 mph 8.1 mph 98 % 0 in
15:04 49.6 °F 48.7 °F 30.4 in West 3.4 mph 8.1 mph 97 % 0 in
15:09 49.8 °F 48.9 °F 30.4 in WSW 6.5 mph 7.8 mph 97 % 0 in
15:15 50 °F 49.3 °F 30.4 in West 5.4 mph 8.7 mph 97 % 0 in
15:20 50 °F 49.3 °F 30.4 in West 7.6 mph 8.7 mph 97 % 0 in
15:25 50 °F 49.3 °F 30.4 in West 4.5 mph 8.5 mph 97 % 0 in
15:30 50 °F 48.9 °F 30.4 in WSW 5.4 mph 8.5 mph 96 % 0 in
15:35 50.5 °F 49.5 °F 30.4 in WSW 5.4 mph 7.8 mph 96 % 0 in
15:40 50.9 °F 49.8 °F 30.4 in WSW 5.6 mph 7.8 mph 96 % 0 in
15:45 51.3 °F 50.2 °F 30.4 in WSW 3.8 mph 6.7 mph 96 % 0 in
15:50 51.3 °F 50.2 °F 30.4 in WSW 4.3 mph 6.3 mph 96 % 0 in
15:55 52 °F 50.5 °F 30.4 in WSW 4 mph 6.3 mph 95 % 0 in
16:00 53.1 °F 51.6 °F 30.4 in WSW 3.8 mph 6.3 mph 95 % 0 in
16:05 53.8 °F 52.3 °F 30.4 in West 4.9 mph 5.6 mph 95 % 0 in
16:10 53.8 °F 52 °F 30.4 in West 6.3 mph 7.2 mph 94 % 0 in
16:15 53.4 °F 51.4 °F 30.4 in West 6.5 mph 7.6 mph 93 % 0 in
16:20 53.4 °F 51.3 °F 30.4 in West 6 mph 7.6 mph 92 % 0 in
16:25 53.2 °F 50.5 °F 30.4 in West 6 mph 7.6 mph 90 % 0 in
16:30 53.2 °F 50 °F 30.4 in West 8.7 mph 8.7 mph 89 % 0 in
16:35 53.2 °F 49.5 °F 30.4 in WSW 5.4 mph 8.7 mph 87 % 0 in
16:40 52.5 °F 48.6 °F 30.4 in West 5.8 mph 8.7 mph 86 % 0 in
16:45 52 °F 47.7 °F 30.4 in West 3.6 mph 8.7 mph 85 % 0 in
16:50 51.6 °F 47.1 °F 30.4 in WSW 6.5 mph 8.7 mph 85 % 0 in
16:55 51.1 °F 46.9 °F 30.4 in WSW 6 mph 8.7 mph 86 % 0 in
17:00 50.9 °F 46.8 °F 30.4 in WSW 5.4 mph 8.1 mph 86 % 0 in
17:05 50.4 °F 46.6 °F 30.4 in WSW 4.3 mph 7.2 mph 87 % 0 in
17:10 50 °F 46.2 °F 30.4 in WSW 4 mph 7.2 mph 87 % 0 in
17:15 49.8 °F 46 °F 30.4 in WSW 5.4 mph 6.5 mph 87 % 0 in
17:20 49.3 °F 45.9 °F 30.4 in WSW 4 mph 6.5 mph 88 % 0 in
17:25 48.7 °F 45.3 °F 30.4 in WSW 4.5 mph 5.8 mph 88 % 0 in
17:31 48.6 °F 45.5 °F 30.4 in WSW 4.9 mph 5.6 mph 89 % 0 in
17:36 48.2 °F 45.1 °F 30.4 in WSW 4 mph 5.6 mph 89 % 0 in
17:41 47.8 °F 44.8 °F 30.4 in West 3.8 mph 5.6 mph 89 % 0 in
17:46 47.7 °F 45 °F 30.4 in West 4.7 mph 5.4 mph 90 % 0 in
17:51 47.3 °F 44.6 °F 30.4 in West 4.7 mph 5.4 mph 90 % 0 in
17:56 46.9 °F 44.2 °F 30.4 in WSW 3.8 mph 5.4 mph 90 % 0 in
18:01 46.8 °F 44.1 °F 30.4 in West 4 mph 5.4 mph 90 % 0 in
18:06 46.6 °F 43.9 °F 30.4 in West 3.6 mph 4.9 mph 90 % 0 in
18:11 46.6 °F 44.1 °F 30.3 in West 3.1 mph 6.3 mph 91 % 0 in
18:16 46 °F 43.5 °F 30.3 in West 4.3 mph 6.3 mph 91 % 0 in
18:21 46 °F 43.5 °F 30.3 in West 5.4 mph 6.5 mph 91 % 0 in
18:26 45.9 °F 43.7 °F 30.4 in West 5.6 mph 6.5 mph 92 % 0 in
18:31 45.7 °F 43.3 °F 30.4 in West 5.4 mph 6.3 mph 92 % 0 in
18:36 45.1 °F 43 °F 30.4 in West 3.1 mph 6.5 mph 92 % 0 in
18:41 45.1 °F 43 °F 30.4 in West 2.7 mph 6.5 mph 92 % 0 in
18:46 44.8 °F 42.4 °F 30.4 in West 4.9 mph 5.8 mph 92 % 0 in
18:51 44.4 °F 42.3 °F 30.4 in WNW 3.8 mph 5.8 mph 92 % 0 in
18:56 44.4 °F 42.6 °F 30.4 in West 2.7 mph 5.6 mph 93 % 0 in
19:01 44.2 °F 42.4 °F 30.4 in WSW 3.1 mph 5.6 mph 93 % 0 in
19:06 43.5 °F 41.5 °F 30.4 in West 3.8 mph 4.9 mph 92 % 0 in
19:11 43.5 °F 41.7 °F 30.4 in West 5.4 mph 5.8 mph 93 % 0 in
19:16 43.5 °F 41.7 °F 30.4 in West 4.3 mph 5.8 mph 93 % 0 in
19:21 43.5 °F 41.9 °F 30.4 in West 3.1 mph 5.4 mph 94 % 0 in
19:26 43.5 °F 41.9 °F 30.4 in West 4 mph 5.6 mph 94 % 0 in
19:31 43.5 °F 41.9 °F 30.4 in West 4 mph 6.5 mph 94 % 0 in
19:36 43.5 °F 41.9 °F 30.4 in WSW 4.9 mph 6.5 mph 94 % 0 in
19:41 43.3 °F 41.7 °F 30.4 in West 4.9 mph 6 mph 94 % 0 in
19:46 43.3 °F 41.7 °F 30.4 in West 6 mph 6.5 mph 94 % 0 in
19:51 43.3 °F 42.1 °F 30.4 in West 4.3 mph 6.5 mph 95 % 0 in
19:56 43.3 °F 42.1 °F 30.4 in West 4.3 mph 6.5 mph 95 % 0 in
20:01 43.2 °F 41.7 °F 30.4 in WSW 3.8 mph 5.4 mph 95 % 0 in
20:06 43.2 °F 41.7 °F 30.4 in WSW 5.6 mph 5.8 mph 95 % 0 in
20:11 43.2 °F 41.7 °F 30.4 in West 4.9 mph 5.8 mph 95 % 0 in
20:16 43.3 °F 42.1 °F 30.4 in West 3.1 mph 5.6 mph 95 % 0 in
20:21 43.3 °F 42.1 °F 30.4 in West 4.3 mph 4.9 mph 95 % 0 in
20:27 43.3 °F 42.3 °F 30.4 in West 3.1 mph 4.7 mph 96 % 0 in
20:32 43.5 °F 42.4 °F 30.4 in West 4.9 mph 4.9 mph 96 % 0 in
20:37 43.5 °F 42.4 °F 30.4 in WNW 4 mph 5.4 mph 96 % 0 in
20:42 43.5 °F 42.4 °F 30.4 in West 3.6 mph 5.4 mph 96 % 0 in
20:47 43.3 °F 42.3 °F 30.4 in WSW 4.7 mph 4.9 mph 96 % 0 in
20:52 43.2 °F 42.1 °F 30.4 in WSW 3.6 mph 4.7 mph 96 % 0 in
20:57 43 °F 41.9 °F 30.4 in WSW 3.1 mph 4.3 mph 96 % 0 in
21:02 42.8 °F 41.7 °F 30.4 in WSW 4 mph 4.7 mph 96 % 0 in
21:07 42.6 °F 41.5 °F 30.4 in WSW 5.4 mph 5.6 mph 96 % 0 in
21:12 42.8 °F 41.7 °F 30.4 in WSW 5.4 mph 6.5 mph 96 % 0 in
21:17 43 °F 41.9 °F 30.4 in WSW 5.8 mph 7.2 mph 96 % 0 in
21:22 43.3 °F 42.3 °F 30.4 in West 7.8 mph 7.8 mph 96 % 0 in
21:27 43.5 °F 42.6 °F 30.4 in West 5.8 mph 8.1 mph 97 % 0 in
21:32 43.5 °F 42.8 °F 30.4 in West 6.7 mph 8.1 mph 97 % 0 in
21:37 43.9 °F 43 °F 30.4 in WSW 6.3 mph 8.5 mph 97 % 0 in
21:42 44.1 °F 43.2 °F 30.4 in WSW 6 mph 8.5 mph 97 % 0 in
21:47 44.1 °F 43.2 °F 30.4 in West 5.6 mph 6.5 mph 97 % 0 in
21:52 44.1 °F 43.2 °F 30.4 in West 4.3 mph 6.5 mph 97 % 0 in
21:57 44.1 °F 43.2 °F 30.4 in West 4 mph 5.8 mph 97 % 0 in
22:02 43.9 °F 43 °F 30.4 in WSW 4.3 mph 5.8 mph 97 % 0 in
22:07 43.9 °F 43 °F 30.4 in WSW 4.3 mph 6 mph 97 % 0 in
22:12 43.9 °F 43 °F 30.4 in WSW 5.6 mph 6.7 mph 97 % 0 in
22:17 43.9 °F 43 °F 30.4 in WSW 5.6 mph 6.7 mph 97 % 0 in
22:22 43.5 °F 42.8 °F 30.4 in West 6.3 mph 7.4 mph 97 % 0 in
22:27 43.9 °F 43 °F 30.4 in West 5.8 mph 7.6 mph 97 % 0 in
22:32 43.9 °F 43 °F 30.4 in WSW 7.4 mph 7.6 mph 97 % 0 in
22:38 43.9 °F 43 °F 30.3 in WSW 6.5 mph 7.6 mph 97 % 0 in
22:43 44.1 °F 43.2 °F 30.3 in West 6.3 mph 8.1 mph 97 % 0 in
22:48 44.1 °F 43.2 °F 30.3 in WSW 5.6 mph 8.1 mph 97 % 0 in
22:53 44.1 °F 43.2 °F 30.3 in West 7.6 mph 7.6 mph 97 % 0 in
22:58 44.1 °F 43.5 °F 30.3 in West 4.5 mph 7.6 mph 98 % 0 in
23:03 44.2 °F 43.5 °F 30.3 in WSW 6.5 mph 8.1 mph 98 % 0 in
23:08 44.1 °F 43.5 °F 30.3 in WSW 5.8 mph 8.1 mph 98 % 0 in
23:13 44.1 °F 43.5 °F 30.3 in West 4.9 mph 7.6 mph 98 % 0 in
23:18 44.1 °F 43.5 °F 30.3 in WSW 4 mph 6.3 mph 98 % 0 in
23:23 43.9 °F 43.3 °F 30.3 in West 4.9 mph 6.3 mph 98 % 0 in
23:28 44.1 °F 43.5 °F 30.3 in West 4.9 mph 6.5 mph 98 % 0 in
23:33 44.1 °F 43.5 °F 30.3 in West 4.9 mph 6.5 mph 98 % 0 in
23:38 43.9 °F 43.3 °F 30.3 in West 4.9 mph 6.3 mph 98 % 0 in
23:43 43.9 °F 43.3 °F 30.3 in WSW 4.3 mph 5.8 mph 98 % 0 in
23:48 43.5 °F 43.2 °F 30.3 in West 4.9 mph 5.8 mph 98 % 0 in
23:53 43.5 °F 42.6 °F 30.3 in WSW 4.3 mph 5.6 mph 97 % 0 in
23:58 43.3 °F 42.4 °F 30.3 in West 4 mph 4.9 mph 97 % 0 in
Le Gheer Warneton
Courtoisie de Weather Underground - 2.5 mb

Mise a jour : 18/12/2017 21:33:12
Généré par Cumulus 1.9.4 (1099)